createdAt,value
2023-04-18T00:00:31.643Z,71.82
2023-04-18T00:01:52.951Z,71.87
2023-04-18T00:03:15.895Z,71.89
2023-04-18T00:04:40.717Z,71.90
2023-04-18T00:06:03.635Z,72.02
2023-04-18T00:08:10.245Z,72.03
2023-04-18T00:09:35.823Z,72.03
2023-04-18T00:10:57.442Z,72.24
2023-04-18T00:12:21.065Z,72.37
2023-04-18T00:13:47.601Z,72.65
2023-04-18T00:15:11.682Z,72.35
2023-04-18T00:16:36.396Z,72.57
2023-04-18T00:18:00.772Z,72.49
2023-04-18T00:19:22.464Z,72.32
2023-04-18T00:20:48.650Z,72.22
2023-04-18T00:22:14.041Z,72.32
2023-04-18T00:23:39.994Z,72.29
2023-04-18T00:25:53.870Z,72.24
2023-04-18T00:27:45.100Z,72.34
2023-04-18T00:29:25.987Z,72.26
2023-04-18T00:30:51.883Z,72.16
2023-04-18T00:32:26.036Z,72.45
2023-04-18T00:34:44.804Z,72.32
2023-04-18T00:36:21.636Z,72.13
2023-04-18T00:37:44.002Z,71.99
2023-04-18T00:39:08.231Z,71.92
2023-04-18T00:40:32.417Z,71.99
2023-04-18T00:41:54.396Z,72.38
2023-04-18T00:43:20.521Z,72.62
2023-04-18T00:47:43.255Z,72.28
2023-04-18T00:49:27.370Z,72.70
2023-04-18T00:51:00.371Z,72.76
2023-04-18T00:56:27.746Z,72.94
2023-04-18T00:57:49.772Z,73.18
2023-04-18T00:59:12.083Z,73.44
2023-04-18T01:00:34.016Z,73.50
2023-04-18T01:02:02.401Z,73.55
2023-04-18T01:03:27.899Z,73.92
2023-04-18T01:05:01.520Z,73.84
2023-04-18T01:06:26.433Z,73.91
2023-04-18T01:07:55.536Z,74.08
2023-04-18T01:09:19.726Z,74.25
2023-04-18T01:10:43.650Z,74.43
2023-04-18T01:12:09.771Z,74.42
2023-04-18T01:13:30.814Z,74.84
2023-04-18T01:15:28.986Z,74.51
2023-04-18T01:17:10.930Z,74.69
2023-04-18T01:18:45.705Z,74.55
2023-04-18T01:21:52.467Z,74.92
2023-04-18T01:23:26.226Z,74.82
2023-04-18T01:26:52.131Z,75.04
2023-04-18T01:28:19.686Z,75.45
2023-04-18T01:29:47.004Z,75.34
2023-04-18T01:31:14.935Z,75.45
2023-04-18T01:32:41.156Z,75.13
2023-04-18T01:34:08.732Z,75.82
2023-04-18T01:35:33.366Z,75.93
2023-04-18T01:36:58.401Z,75.86
2023-04-18T01:38:23.803Z,75.82
2023-04-18T01:39:47.915Z,76.23
2023-04-18T01:41:10.751Z,76.16
2023-04-18T01:42:33.089Z,76.36
2023-04-18T01:43:55.340Z,76.47
2023-04-18T01:45:17.320Z,76.30
2023-04-18T01:46:40.137Z,76.27
2023-04-18T01:48:02.534Z,76.32
2023-04-18T01:49:25.064Z,76.29
2023-04-18T01:50:46.224Z,76.48
2023-04-18T01:52:08.713Z,76.51
2023-04-18T01:53:30.985Z,76.61
2023-04-18T01:54:58.118Z,76.90
2023-04-18T01:56:21.851Z,76.90
2023-04-18T01:57:46.735Z,76.99
2023-04-18T01:59:09.128Z,77.11
2023-04-18T02:00:31.308Z,77.32
2023-04-18T02:01:52.628Z,77.18
2023-04-18T02:03:14.920Z,77.31
2023-04-18T02:04:37.387Z,77.36
2023-04-18T02:05:59.838Z,77.57
2023-04-18T02:07:22.415Z,77.54
2023-04-18T02:08:44.465Z,77.35
2023-04-18T02:10:06.738Z,77.37
2023-04-18T02:11:29.983Z,77.49
2023-04-18T02:12:52.452Z,77.40
2023-04-18T02:14:15.391Z,77.66
2023-04-18T02:15:36.554Z,77.78
2023-04-18T02:16:59.195Z,77.65
2023-04-18T02:18:22.170Z,77.76
2023-04-18T02:19:44.516Z,77.89
2023-04-18T02:21:07.440Z,77.99
2023-04-18T02:22:28.522Z,78.10
2023-04-18T02:23:51.198Z,77.98
2023-04-18T02:25:19.120Z,78.02
2023-04-18T02:26:45.077Z,77.98
2023-04-18T02:28:06.431Z,77.87
2023-04-18T02:29:28.327Z,77.77
2023-04-18T02:32:46.074Z,77.57
2023-04-18T02:34:06.872Z,77.56
2023-04-18T02:35:29.390Z,77.69
2023-04-18T02:36:50.380Z,77.67
2023-04-18T02:38:13.879Z,77.66
2023-04-18T02:39:38.619Z,77.95
2023-04-18T02:41:00.674Z,78.01
2023-04-18T02:42:23.367Z,78.01
2023-04-18T02:43:47.705Z,77.94
2023-04-18T02:45:11.390Z,77.88
2023-04-18T02:46:33.226Z,77.95
2023-04-18T02:47:59.389Z,77.77
2023-04-18T02:49:21.508Z,77.84
2023-04-18T02:50:45.951Z,78.02
2023-04-18T02:52:08.602Z,77.86
2023-04-18T02:53:29.788Z,77.94
2023-04-18T02:54:52.159Z,77.92
2023-04-18T02:56:18.984Z,78.00
2023-04-18T02:58:03.171Z,77.97
2023-04-18T02:59:43.990Z,77.94
2023-04-18T03:01:21.248Z,78.11
2023-04-18T03:02:53.526Z,78.03
2023-04-18T03:04:30.957Z,78.25
2023-04-18T03:05:55.252Z,78.26
2023-04-18T03:07:17.885Z,78.30
2023-04-18T03:08:39.137Z,78.36
2023-04-18T03:10:01.637Z,78.43
2023-04-18T03:11:28.700Z,78.39
2023-04-18T03:12:50.491Z,78.37
2023-04-18T03:14:15.415Z,78.35
2023-04-18T03:15:43.789Z,78.34
2023-04-18T03:17:06.112Z,78.35
2023-04-18T03:18:34.438Z,78.28
2023-04-18T03:19:57.677Z,78.18
2023-04-18T03:21:18.821Z,78.31
2023-04-18T03:22:40.954Z,78.19
2023-04-18T03:24:02.282Z,78.20
2023-04-18T03:25:24.598Z,78.17
2023-04-18T03:26:47.518Z,78.47
2023-04-18T03:28:10.168Z,78.43
2023-04-18T03:29:32.920Z,78.37
2023-04-18T03:30:55.424Z,78.37
2023-04-18T03:32:18.568Z,78.44
2023-04-18T03:33:42.448Z,78.31
2023-04-18T03:35:05.289Z,78.39
2023-04-18T03:36:28.852Z,78.54
2023-04-18T03:37:51.158Z,78.65
2023-04-18T03:39:20.187Z,78.73
2023-04-18T03:40:42.332Z,78.63
2023-04-18T03:42:14.185Z,78.56
2023-04-18T03:43:37.096Z,78.54
2023-04-18T03:45:01.159Z,78.55
2023-04-18T03:46:25.118Z,78.49
2023-04-18T03:47:50.044Z,78.49
2023-04-18T03:49:12.565Z,78.44
2023-04-18T03:50:33.732Z,78.66
2023-04-18T03:51:57.113Z,78.21
2023-04-18T03:53:19.826Z,78.26
2023-04-18T03:54:40.940Z,78.21
2023-04-18T03:56:04.870Z,78.41
2023-04-18T03:57:58.523Z,78.35
2023-04-18T03:59:26.680Z,78.46
2023-04-18T04:00:52.611Z,78.37
2023-04-18T04:02:13.746Z,78.58
2023-04-18T04:03:38.602Z,78.46
2023-04-18T04:05:00.667Z,78.39
2023-04-18T04:06:22.944Z,78.22
2023-04-18T04:07:49.656Z,78.17
2023-04-18T04:09:11.869Z,78.34
2023-04-18T04:10:37.563Z,78.30
2023-04-18T04:12:03.228Z,78.32
2023-04-18T04:13:24.531Z,78.33
2023-04-18T04:14:46.524Z,78.26
2023-04-18T04:16:10.351Z,78.43
2023-04-18T04:17:33.350Z,78.42
2023-04-18T04:18:55.449Z,78.38
2023-04-18T04:20:24.881Z,78.38
2023-04-18T04:21:54.358Z,78.45
2023-04-18T04:23:17.546Z,78.48
2023-04-18T04:24:42.849Z,78.50
2023-04-18T04:26:05.820Z,78.37
2023-04-18T04:27:37.090Z,78.40
2023-04-18T04:29:00.711Z,78.44
2023-04-18T04:30:36.096Z,78.34
2023-04-18T04:32:00.460Z,78.25
2023-04-18T04:33:29.860Z,78.01
2023-04-18T04:34:58.028Z,77.95
2023-04-18T04:36:24.945Z,78.22
2023-04-18T04:37:52.379Z,78.16
2023-04-18T04:39:23.093Z,78.25
2023-04-18T04:41:02.629Z,78.22
2023-04-18T04:42:28.675Z,78.44
2023-04-18T04:44:04.559Z,78.31
2023-04-18T04:45:27.886Z,78.22
2023-04-18T04:46:50.828Z,78.17
2023-04-18T04:48:31.377Z,78.17
2023-04-18T04:49:53.405Z,78.09
2023-04-18T04:51:15.567Z,77.90
2023-04-18T04:52:40.354Z,77.97
2023-04-18T04:54:02.659Z,77.94
2023-04-18T04:55:25.354Z,77.89
2023-04-18T04:56:48.036Z,77.69
2023-04-18T04:58:10.552Z,77.76
2023-04-18T04:59:55.594Z,77.67
2023-04-18T05:01:18.213Z,77.51
2023-04-18T05:02:40.694Z,77.37
2023-04-18T05:04:13.850Z,77.22
2023-04-18T05:05:37.125Z,77.09
2023-04-18T05:07:00.425Z,77.01
2023-04-18T05:08:22.683Z,77.18
2023-04-18T05:09:44.987Z,77.19
2023-04-18T05:11:07.166Z,76.99
2023-04-18T05:12:32.640Z,76.95
2023-04-18T05:13:54.961Z,76.96
2023-04-18T05:15:17.029Z,77.32
2023-04-18T05:16:41.886Z,77.20
2023-04-18T05:18:04.093Z,76.91
2023-04-18T05:19:30.559Z,77.12
2023-04-18T05:20:55.342Z,77.14
2023-04-18T05:22:17.458Z,77.13
2023-04-18T05:23:38.682Z,77.21
2023-04-18T05:25:02.649Z,77.08
2023-04-18T05:26:25.173Z,77.50
2023-04-18T05:27:47.687Z,77.13
2023-04-18T05:29:13.790Z,77.02
2023-04-18T05:30:36.180Z,77.10
2023-04-18T05:31:58.279Z,77.10
2023-04-18T05:33:20.540Z,77.07
2023-04-18T05:34:43.704Z,77.14
2023-04-18T05:36:06.813Z,77.19
2023-04-18T05:37:27.904Z,77.16
2023-04-18T05:38:49.807Z,77.04
2023-04-18T05:40:17.241Z,76.79
2023-04-18T05:41:39.046Z,76.76
2023-04-18T05:43:00.589Z,76.96
2023-04-18T05:44:24.285Z,76.86
2023-04-18T05:45:46.695Z,76.66
2023-04-18T05:47:09.121Z,76.57
2023-04-18T05:48:31.383Z,76.68
2023-04-18T05:49:55.031Z,76.40
2023-04-18T05:51:17.175Z,76.61
2023-04-18T05:52:39.482Z,76.55
2023-04-18T05:54:01.735Z,76.39
2023-04-18T05:55:22.910Z,76.63
2023-04-18T05:56:45.305Z,76.71
2023-04-18T05:58:07.546Z,76.76
2023-04-18T05:59:29.565Z,76.60
2023-04-18T06:00:50.702Z,76.71
2023-04-18T06:02:14.450Z,76.85
2023-04-18T06:03:40.014Z,76.76
2023-04-18T06:05:03.928Z,76.61
2023-04-18T06:06:25.175Z,76.84
2023-04-18T06:07:48.238Z,76.77
2023-04-18T06:09:10.524Z,76.65
2023-04-18T06:10:32.741Z,77.09
2023-04-18T06:11:55.032Z,77.06
2023-04-18T06:13:16.635Z,77.02
2023-04-18T06:14:41.385Z,77.22
2023-04-18T06:16:03.615Z,77.28
2023-04-18T06:17:25.864Z,77.27
2023-04-18T06:18:48.320Z,77.53
2023-04-18T06:20:13.000Z,77.43
2023-04-18T06:21:34.925Z,77.50
2023-04-18T06:22:57.124Z,77.64
2023-04-18T06:24:19.396Z,77.79
2023-04-18T06:25:43.148Z,77.83
2023-04-18T06:27:14.961Z,77.75
2023-04-18T06:28:42.858Z,77.54
2023-04-18T06:30:09.855Z,77.45
2023-04-18T06:31:34.425Z,77.68
2023-04-18T06:32:55.626Z,77.58
2023-04-18T06:34:20.929Z,77.73
2023-04-18T06:35:44.543Z,77.74
2023-04-18T06:37:07.173Z,77.68
2023-04-18T06:38:29.416Z,77.71
2023-04-18T06:39:51.700Z,77.78
2023-04-18T06:41:17.354Z,77.53
2023-04-18T06:42:39.933Z,77.45
2023-04-18T06:44:10.986Z,77.75
2023-04-18T06:45:33.292Z,77.74
2023-04-18T06:46:54.826Z,77.66
2023-04-18T06:48:16.994Z,77.85
2023-04-18T06:49:38.793Z,77.84
2023-04-18T06:51:01.953Z,78.02
2023-04-18T06:52:24.169Z,77.86
2023-04-18T06:53:46.130Z,77.73
2023-04-18T06:55:09.988Z,77.70
2023-04-18T06:56:33.046Z,77.63
2023-04-18T06:57:56.906Z,77.57
2023-04-18T06:59:19.468Z,77.72
2023-04-18T07:00:41.938Z,77.69
2023-04-18T07:02:05.218Z,77.78
2023-04-18T07:03:27.318Z,77.96
2023-04-18T07:04:49.359Z,78.07
2023-04-18T07:06:38.984Z,77.95
2023-04-18T07:08:01.481Z,78.10
2023-04-18T07:09:30.643Z,78.09
2023-04-18T07:11:05.922Z,78.20
2023-04-18T07:12:33.858Z,78.21
2023-04-18T07:13:56.004Z,77.81
2023-04-18T07:15:18.590Z,77.79
2023-04-18T07:16:41.061Z,77.79
2023-04-18T07:19:06.738Z,77.48
2023-04-18T07:20:29.299Z,77.76
2023-04-18T07:21:58.896Z,77.49
2023-04-18T07:23:26.249Z,77.20
2023-04-18T07:25:04.023Z,77.20
2023-04-18T07:26:45.422Z,77.04
2023-04-18T07:28:07.699Z,77.04
2023-04-18T07:29:30.266Z,76.84
2023-04-18T07:31:04.691Z,76.90
2023-04-18T07:32:55.279Z,76.73
2023-04-18T07:36:25.534Z,76.51
2023-04-18T07:38:26.549Z,76.77
2023-04-18T07:39:53.547Z,76.97
2023-04-18T07:41:27.701Z,76.48
2023-04-18T07:43:48.082Z,76.50
2023-04-18T07:45:13.376Z,76.42
2023-04-18T07:46:38.728Z,76.15
2023-04-18T07:48:04.228Z,76.42
2023-04-18T07:49:29.919Z,76.28
2023-04-18T07:50:52.236Z,75.68
2023-04-18T07:52:36.369Z,75.21
2023-04-18T07:54:07.625Z,74.84
2023-04-18T07:55:32.666Z,74.53
2023-04-18T07:57:03.398Z,74.29
2023-04-18T07:59:36.020Z,74.31
2023-04-18T08:01:18.822Z,74.98
2023-04-18T08:03:02.114Z,74.97
2023-04-18T08:17:30.640Z,75.89
2023-04-18T08:19:10.579Z,76.01
2023-04-18T08:21:03.216Z,75.71
2023-04-18T08:22:30.862Z,76.30
2023-04-18T08:23:53.465Z,76.00
2023-04-18T08:25:16.409Z,75.65
2023-04-18T08:26:45.498Z,75.23
2023-04-18T08:28:07.731Z,75.01
2023-04-18T08:29:54.301Z,74.66
2023-04-18T08:32:12.257Z,74.63
2023-04-18T08:33:40.354Z,74.94
2023-04-18T08:36:04.534Z,74.87
2023-04-18T08:37:30.387Z,74.74
2023-04-18T08:39:32.504Z,74.37
2023-04-18T08:40:57.812Z,74.25
2023-04-18T08:45:21.140Z,73.92
2023-04-18T08:46:49.483Z,74.13
2023-04-18T08:48:14.740Z,73.73
2023-04-18T08:57:11.568Z,73.93
2023-04-18T08:59:05.452Z,73.94
2023-04-18T09:00:46.102Z,73.52
2023-04-18T09:02:12.361Z,73.57
2023-04-18T09:03:45.817Z,73.08
2023-04-18T09:05:22.460Z,73.02
2023-04-18T09:06:54.056Z,72.73
2023-04-18T09:08:31.410Z,72.71
2023-04-18T09:10:14.157Z,72.47
2023-04-18T09:11:38.735Z,72.06
2023-04-18T09:13:21.680Z,71.79
2023-04-18T09:15:14.909Z,71.94
2023-04-18T09:16:50.893Z,71.75
2023-04-18T09:28:08.246Z,71.74
2023-04-18T09:32:32.039Z,71.45
2023-04-18T09:35:18.009Z,71.63
2023-04-18T09:37:43.293Z,71.71
2023-04-18T09:39:31.333Z,71.15
2023-04-18T09:45:02.915Z,70.83
2023-04-18T09:53:05.590Z,70.24
2023-04-18T10:13:43.104Z,71.02
2023-04-18T10:35:47.150Z,72.61
2023-04-18T10:40:09.663Z,72.20
2023-04-18T10:42:39.673Z,71.62
2023-04-18T10:45:02.156Z,71.52
2023-04-18T10:46:31.650Z,71.15
2023-04-18T10:49:05.651Z,70.25
2023-04-18T10:54:03.474Z,67.34
2023-04-18T10:56:17.097Z,66.20
2023-04-18T10:58:11.788Z,64.21
2023-04-18T10:59:40.494Z,62.69
2023-04-18T11:01:44.676Z,62.41
2023-04-18T11:03:15.386Z,61.67
2023-04-18T11:04:47.566Z,60.74
2023-04-18T11:07:10.944Z,60.69
2023-04-18T11:09:27.505Z,61.15
2023-04-18T11:13:16.662Z,59.77
2023-04-18T11:15:16.626Z,58.32
2023-04-18T11:16:49.213Z,58.45
2023-04-18T11:21:21.605Z,58.44
2023-04-18T11:23:22.910Z,58.36
2023-04-18T11:25:41.285Z,57.86
2023-04-18T11:28:09.808Z,58.63
2023-04-18T11:32:49.838Z,58.89
2023-04-18T11:35:38.276Z,58.88
2023-04-18T11:40:36.780Z,59.72
2023-04-18T11:42:13.345Z,59.35
2023-04-18T11:43:35.867Z,58.99
2023-04-18T11:47:50.234Z,59.45
2023-04-18T11:49:44.151Z,60.02
2023-04-18T17:18:34.300Z,65.66
2023-04-18T17:20:05.327Z,65.80
2023-04-18T17:25:28.584Z,65.92
2023-04-18T17:27:50.850Z,65.85
2023-04-18T17:29:21.503Z,65.76
2023-04-18T17:30:51.711Z,65.79
2023-04-18T18:05:26.096Z,66.65
2023-04-18T18:06:55.607Z,66.77
2023-04-18T18:08:18.013Z,66.63
2023-04-18T18:09:41.605Z,66.56
2023-04-18T18:11:07.591Z,66.64
2023-04-18T18:13:03.252Z,66.80
2023-04-18T18:14:27.754Z,66.54
2023-04-18T18:18:22.348Z,66.85
2023-04-18T18:19:53.536Z,66.90
2023-04-18T18:21:17.961Z,66.98
2023-04-18T18:22:59.838Z,67.14
2023-04-18T18:24:22.268Z,67.00
2023-04-18T18:25:45.706Z,66.70
2023-04-18T18:27:19.601Z,66.58
2023-04-18T18:28:42.085Z,66.66
2023-04-18T18:30:10.765Z,66.88
2023-04-18T18:31:45.484Z,66.50
2023-04-18T18:33:23.555Z,66.55
2023-04-18T18:34:58.372Z,66.48
2023-04-18T18:36:25.251Z,66.61
2023-04-18T18:37:50.840Z,66.41
2023-04-18T18:39:25.512Z,66.38
2023-04-18T18:41:07.544Z,66.47
2023-04-18T18:42:33.020Z,66.54
2023-04-18T18:44:04.673Z,66.53
2023-04-18T18:45:32.840Z,66.31
2023-04-18T18:47:06.065Z,66.12
2023-04-18T18:48:39.498Z,66.17
2023-04-18T18:50:09.855Z,66.15
2023-04-18T18:54:38.871Z,66.03
2023-04-18T18:57:19.903Z,66.25
2023-04-18T18:58:50.531Z,66.27
2023-04-18T19:00:46.667Z,66.41
2023-04-18T19:02:31.674Z,66.51
2023-04-18T19:03:54.597Z,66.55
2023-04-18T19:05:29.007Z,66.15
2023-04-18T19:07:08.917Z,66.30
2023-04-18T19:08:31.457Z,66.17
2023-04-18T19:10:02.985Z,65.96
2023-04-18T19:11:58.039Z,65.94
2023-04-18T19:13:28.498Z,65.92
2023-04-18T19:14:51.337Z,65.58
2023-04-18T19:16:21.531Z,65.48
2023-04-18T19:17:44.477Z,65.88
2023-04-18T19:19:16.030Z,65.81
2023-04-18T19:21:01.880Z,65.70
2023-04-18T19:22:38.914Z,65.68
2023-04-18T19:24:12.176Z,65.61
2023-04-18T19:25:42.278Z,65.67
2023-04-18T19:27:06.067Z,65.63
2023-04-18T19:28:37.642Z,65.75
2023-04-18T19:30:34.470Z,65.79
2023-04-18T19:31:59.573Z,65.84
2023-04-18T19:33:24.286Z,65.78
2023-04-18T19:34:46.777Z,65.57
2023-04-18T19:36:09.329Z,65.51
2023-04-18T19:37:36.297Z,65.85
2023-04-18T19:38:58.334Z,65.62
2023-04-18T19:40:20.722Z,65.71
2023-04-18T19:41:44.409Z,65.58
2023-04-18T19:43:09.112Z,65.48
2023-04-18T19:44:42.032Z,65.55
2023-04-18T19:46:06.743Z,65.77
2023-04-18T19:47:32.348Z,65.67
2023-04-18T19:48:54.959Z,65.58
2023-04-18T19:50:23.589Z,65.41
2023-04-18T19:51:46.138Z,65.45
2023-04-18T19:53:08.313Z,65.56
2023-04-18T19:54:35.726Z,65.54
2023-04-18T19:55:58.519Z,65.55
2023-04-18T19:57:24.555Z,65.51
2023-04-18T19:58:47.089Z,65.22
2023-04-18T20:00:16.345Z,65.26
2023-04-18T20:01:44.028Z,65.27
2023-04-18T20:03:06.772Z,65.17
2023-04-18T20:04:33.960Z,64.93
2023-04-18T20:05:56.416Z,65.08
2023-04-18T20:07:18.531Z,65.17
2023-04-18T20:08:43.437Z,65.12
2023-04-18T20:10:06.843Z,65.13
2023-04-18T20:11:29.192Z,65.08
2023-04-18T20:12:52.885Z,65.18
2023-04-18T20:14:21.366Z,65.01
2023-04-18T20:15:44.302Z,64.95
2023-04-18T20:17:05.591Z,64.98
2023-04-18T20:18:27.796Z,64.81
2023-04-18T20:19:51.117Z,64.65
2023-04-18T20:21:13.535Z,64.57
2023-04-18T20:22:40.496Z,64.66
2023-04-18T20:24:03.776Z,64.74
2023-04-18T20:25:26.420Z,64.67
2023-04-18T20:26:47.856Z,64.55
2023-04-18T20:28:13.200Z,64.59
2023-04-18T20:29:38.240Z,64.74
2023-04-18T20:31:02.180Z,64.39
2023-04-18T20:32:24.411Z,64.37
2023-04-18T20:33:48.821Z,64.76
2023-04-18T20:35:10.270Z,64.57
2023-04-18T20:36:34.605Z,64.57
2023-04-18T20:37:56.238Z,64.32
2023-04-18T20:39:18.552Z,64.60
2023-04-18T20:40:45.066Z,64.74
2023-04-18T20:42:07.601Z,64.40
2023-04-18T20:43:37.610Z,64.49
2023-04-18T20:44:59.898Z,64.42
2023-04-18T20:46:21.247Z,64.53
2023-04-18T20:47:44.694Z,64.48
2023-04-18T20:49:10.428Z,64.36
2023-04-18T20:50:32.823Z,64.44
2023-04-18T20:51:56.630Z,64.51
2023-04-18T20:53:20.850Z,64.40
2023-04-18T20:54:43.160Z,64.35
2023-04-18T20:56:05.747Z,64.17
2023-04-18T20:57:27.970Z,64.21
2023-04-18T20:58:51.383Z,64.34
2023-04-18T21:00:14.604Z,64.19
2023-04-18T21:01:37.343Z,64.29
2023-04-18T21:02:59.895Z,64.18
2023-04-18T21:04:21.909Z,64.20
2023-04-18T21:05:44.314Z,64.42
2023-04-18T21:07:06.822Z,64.37
2023-04-18T21:08:30.001Z,64.62
2023-04-18T21:09:52.010Z,64.28
2023-04-18T21:11:15.280Z,64.31
2023-04-18T21:12:37.345Z,64.37
2023-04-18T21:13:59.763Z,64.20
2023-04-18T21:15:22.283Z,64.60
2023-04-18T21:16:49.768Z,64.61
2023-04-18T21:18:12.001Z,64.41
2023-04-18T21:19:37.190Z,64.40
2023-04-18T21:21:01.819Z,64.20
2023-04-18T21:22:25.699Z,64.42
2023-04-18T21:23:47.812Z,64.28
2023-04-18T21:25:10.877Z,64.10
2023-04-18T21:26:35.754Z,64.38
2023-04-18T21:27:57.679Z,64.16
2023-04-18T21:29:21.898Z,64.17
2023-04-18T21:30:44.303Z,64.15
2023-04-18T21:32:06.926Z,64.10
2023-04-18T21:33:29.081Z,64.02
2023-04-18T21:34:51.319Z,64.26
2023-04-18T21:36:12.522Z,64.06
2023-04-18T21:37:34.883Z,64.28
2023-04-18T21:38:58.105Z,64.22
2023-04-18T21:40:20.848Z,64.21
2023-04-18T21:41:43.168Z,64.28
2023-04-18T21:43:04.423Z,64.38
2023-04-18T21:44:28.036Z,64.43
2023-04-18T21:45:50.192Z,64.18
2023-04-18T21:47:12.287Z,64.30
2023-04-18T21:48:40.231Z,64.38
2023-04-18T21:50:03.491Z,64.31
2023-04-18T21:51:27.377Z,64.28
2023-04-18T21:52:49.822Z,64.29
2023-04-18T21:54:11.965Z,64.26
2023-04-18T21:55:36.227Z,64.22
2023-04-18T21:56:58.619Z,64.26
2023-04-18T21:58:19.790Z,64.34
2023-04-18T21:59:43.464Z,64.47
2023-04-18T22:01:04.842Z,64.55
2023-04-18T22:02:29.121Z,64.30
2023-04-18T22:03:50.834Z,64.49
2023-04-18T22:05:18.267Z,64.53
2023-04-18T22:06:41.683Z,64.37
2023-04-18T22:08:03.360Z,64.44
2023-04-18T22:09:25.746Z,64.20
2023-04-18T22:10:50.758Z,64.34
2023-04-18T22:12:16.111Z,64.27
2023-04-18T22:16:22.344Z,64.28
2023-04-18T22:17:45.046Z,64.35
2023-04-18T22:19:28.617Z,64.33
2023-04-18T22:24:55.206Z,64.28
2023-04-18T22:30:11.810Z,64.46
2023-04-18T22:31:03.901Z,64.38
2023-04-18T22:32:30.395Z,64.59
2023-04-18T22:34:01.601Z,64.71
2023-04-18T22:36:05.427Z,64.57
2023-04-18T22:38:13.827Z,64.70
2023-04-18T22:39:39.150Z,64.30
2023-04-18T22:41:08.160Z,64.63
2023-04-18T22:42:30.129Z,64.53
2023-04-18T22:43:54.852Z,64.37
2023-04-18T22:45:16.172Z,64.60
2023-04-18T22:46:39.622Z,64.65
2023-04-18T22:48:04.636Z,64.45
2023-04-18T22:49:26.307Z,64.48
2023-04-18T22:50:51.577Z,64.60
2023-04-18T22:52:14.355Z,64.32
2023-04-18T22:53:36.685Z,64.35
2023-04-18T22:54:57.822Z,64.19
2023-04-18T22:56:20.550Z,64.31
2023-04-18T22:57:42.239Z,64.10
2023-04-18T22:59:04.975Z,64.05
2023-04-18T23:00:26.139Z,64.13
2023-04-18T23:01:48.826Z,64.07
2023-04-18T23:03:11.720Z,64.22
2023-04-18T23:04:34.780Z,64.08
2023-04-18T23:05:57.107Z,64.01
2023-04-18T23:07:18.308Z,64.06
2023-04-18T23:08:40.703Z,64.13
2023-04-18T23:10:01.861Z,63.82
2023-04-18T23:11:24.506Z,64.21
2023-04-18T23:12:46.080Z,64.02
2023-04-18T23:14:08.735Z,64.16
2023-04-18T23:15:31.339Z,64.33
2023-04-18T23:16:52.991Z,64.14
2023-04-18T23:18:19.136Z,64.23
2023-04-18T23:19:40.588Z,64.22
2023-04-18T23:21:06.242Z,64.33
2023-04-18T23:22:29.612Z,64.25
2023-04-18T23:23:52.006Z,64.13
2023-04-18T23:25:13.127Z,64.19
2023-04-18T23:27:06.231Z,64.25
2023-04-18T23:28:52.945Z,64.21
2023-04-18T23:30:17.041Z,64.14
2023-04-18T23:32:11.684Z,63.95
2023-04-18T23:35:56.697Z,64.07
2023-04-18T23:37:21.210Z,64.04
2023-04-18T23:38:54.907Z,64.24
2023-04-18T23:40:16.953Z,64.47
2023-04-18T23:41:38.567Z,64.29
2023-04-18T23:43:00.995Z,64.34
2023-04-18T23:46:49.267Z,64.43
2023-04-18T23:48:11.542Z,64.56
2023-04-18T23:49:57.151Z,64.43
2023-04-18T23:51:18.460Z,64.52
2023-04-18T23:53:25.671Z,64.59
2023-04-18T23:56:55.687Z,64.55
2023-04-18T23:58:24.722Z,64.57
2023-04-18T23:59:49.382Z,64.45
